Cedar Lake, Texas
Current Conditions -  °F | °C
As of 12:53 AM on Sunday 23 Nov 2014 (Local Time) from KLBX Reporting Station
Broken Clouds Broken Clouds  
Wind Chill: 16°   Ceiling: 11000
Heat Index: 16°   Visibility: 10mi
Dew Point: 16°   Wind: 0mph
Humidity: 97%   Direction: NA
Pressure: 29.67"   Gusts: NA
Location:  28.8997°N, 95.7887°W
Report Text: KLBX 230653Z AUTO 00000KT 10SM SCT095 BKN110 16/16 A2967 RMK AO2 RAE46 PRESRR SLP047 P0011 T01610156
Loading
Personal Weather Stations






























Interactive Weather Map New forecast layout! Learn more

10-Day Weather Forecast

Advertisements
Track Severe Weather on mobile